Time;durP1;ratioP1;P1;durP2;ratioP2;P2;SDS_P1;SDS_P2;PMS_P1;PMS_P2;Temp;Humidity;BMP_temperature;BMP_pressure;BME280_temperature;BME280_humidity;BME280_pressure;Samples;Min_cycle;Max_cycle;Signal;HPM_P1;HPM_P2
2023/04/14 00:01:32;;;;;;;6.32;2.22;;;15.40;85.20;;;;;;4998677;28;20053;-63
2023/04/14 00:03:59;;;;;;;8.38;2.42;;;;;;;;;;5008637;28;20042;-62
2023/04/14 00:06:26;;;;;;;8.52;2.67;;;;;;;;;;5010237;28;20411;-63
2023/04/14 00:08:52;;;;;;;7.65;2.33;;;15.20;85.00;;;;;;5008938;28;20460;-62
2023/04/14 00:11:18;;;;;;;10.13;2.30;;;15.30;84.90;;;;;;5010125;28;21771;-62
2023/04/14 00:13:43;;;;;;;6.70;2.25;;;15.60;85.00;;;;;;5007134;28;20057;-63
2023/04/14 00:16:11;;;;;;;8.68;2.10;;;;;;;;;;4997338;28;20038;-62
2023/04/14 00:18:37;;;;;;;6.93;2.10;;;15.50;84.30;;;;;;5009453;28;20111;-63
2023/04/14 00:21:03;;;;;;;7.32;2.78;;;15.30;80.70;;;;;;5001502;28;20501;-63
2023/04/14 00:23:28;;;;;;;5.88;2.00;;;15.60;84.80;;;;;;5012458;28;20349;-62
2023/04/14 00:25:54;;;;;;;8.90;2.30;;;15.50;82.70;;;;;;5017090;28;20045;-62
2023/04/14 00:28:21;;;;;;;6.72;2.40;;;;;;;;;;5011786;28;20440;-63
2023/04/14 00:30:47;;;;;;;5.25;2.13;;;;;;;;;;5009804;28;20120;-63
2023/04/14 00:33:12;;;;;;;9.50;2.65;;;15.40;84.70;;;;;;5016041;28;20038;-62
2023/04/14 00:35:39;;;;;;;9.95;2.45;;;;;;;;;;5013897;28;20046;-62
2023/04/14 00:38:05;;;;;;;7.55;2.40;;;15.20;84.50;;;;;;5014375;28;20447;-63
2023/04/14 00:40:31;;;;;;;9.05;2.95;;;;;;;;;;5014615;28;20061;-63
2023/04/14 00:42:57;;;;;;;6.95;2.30;;;15.20;84.50;;;;;;5016274;28;20074;-63
2023/04/14 00:45:24;;;;;;;7.43;2.40;;;;;;;;;;5015599;28;20074;-63
2023/04/14 00:47:50;;;;;;;7.50;2.13;;;;;;;;;;5010576;28;20053;-61
2023/04/14 00:50:17;;;;;;;7.28;2.40;;;;;;;;;;5003589;28;20522;-62
2023/04/14 00:52:45;;;;;;;7.55;2.33;;;15.20;84.60;;;;;;5015201;28;20120;-62
2023/04/14 00:55:10;;;;;;;6.45;2.15;;;15.30;81.80;;;;;;5013528;28;20446;-61
2023/04/14 00:57:36;;;;;;;6.70;2.20;;;;;;;;;;5015947;28;20104;-61
2023/04/14 01:00:05;;;;;;;6.97;2.00;;;15.20;80.70;;;;;;5013866;28;20521;-61
2023/04/14 01:02:32;;;;;;;7.75;2.08;;;;;;;;;;5008637;28;20457;-60
2023/04/14 01:04:58;;;;;;;6.35;2.28;;;;;;;;;;5008038;28;20062;-61
2023/04/14 01:07:24;;;;;;;7.35;2.25;;;15.10;80.20;;;;;;5009620;28;20065;-61
2023/04/14 01:09:51;;;;;;;6.82;2.60;;;;;;;;;;5014112;28;20050;-60
2023/04/14 01:12:17;;;;;;;6.70;2.40;;;;;;;;;;5011719;28;20064;-60
2023/04/14 01:15:03;;;;;;;5.40;2.33;;;;;;;;;;5007420;28;20495;-62
2023/04/14 01:17:38;;;;;;;9.18;2.55;;;15.30;81.50;;;;;;5013229;28;20854;-60
2023/04/14 01:20:16;;;;;;;7.95;2.42;;;15.30;80.00;;;;;;5007509;28;20046;-61
2023/04/14 01:22:49;;;;;;;5.63;2.28;;;;;;;;;;5001122;28;20412;-61
2023/04/14 01:25:28;;;;;;;8.05;2.45;;;15.20;82.10;;;;;;4998958;28;20050;-61
2023/04/14 01:27:55;;;;;;;8.52;2.75;;;15.10;82.00;;;;;;4998487;28;20096;-60
2023/04/14 01:30:50;;;;;;;6.90;2.10;;;15.30;81.60;;;;;;5015009;28;20046;-61
2023/04/14 01:33:18;;;;;;;6.68;2.55;;;15.10;84.30;;;;;;5021248;28;20508;-61
2023/04/14 01:35:47;;;;;;;6.20;2.10;;;15.30;81.70;;;;;;5013743;28;20053;-61
2023/04/14 01:38:16;;;;;;;7.32;2.35;;;;;;;;;;5011933;28;20058;-61
2023/04/14 01:40:41;;;;;;;8.85;2.25;;;15.30;84.40;;;;;;4997460;28;20575;-61
2023/04/14 01:43:11;;;;;;;6.07;2.58;;;15.40;80.00;;;;;;5033593;28;20124;-61
2023/04/14 01:45:44;;;;;;;6.55;2.15;;;;;;;;;;5016173;28;20080;-61
2023/04/14 01:48:09;;;;;;;;;;;15.20;81.70;;;;;;5018975;28;20054;-62
2023/04/14 01:50:35;;;;;;;9.95;2.30;;;;;;;;;;5013067;28;19918;-62
2023/04/14 01:53:01;;;;;;;8.20;2.38;;;15.10;81.10;;;;;;4996828;28;20049;-62
2023/04/14 01:55:28;;;;;;;7.53;2.47;;;;;;;;;;5004427;28;20049;-63
2023/04/14 01:57:55;;;;;;;6.32;2.40;;;15.10;81.30;;;;;;5013765;28;20075;-61
2023/04/14 02:00:21;;;;;;;8.02;2.13;;;;;;;;;;5009836;28;20050;-61
2023/04/14 02:02:47;;;;;;;8.13;2.40;;;15.20;82.00;;;;;;5012851;28;20377;-62
2023/04/14 02:05:14;;;;;;;7.53;2.42;;;14.90;84.10;;;;;;5012170;28;20041;-61
2023/04/14 02:07:40;;;;;;;6.75;2.42;;;;;;;;;;4994175;28;20058;-62
2023/04/14 02:10:08;;;;;;;6.43;2.40;;;;;;;;;;5013715;28;20050;-62
2023/04/14 02:12:35;;;;;;;6.45;2.08;;;15.20;84.30;;;;;;5008804;28;20049;-62
2023/04/14 02:15:01;;;;;;;10.75;2.65;;;;;;;;;;5007882;28;20064;-61
2023/04/14 02:17:27;;;;;;;6.95;2.00;;;15.20;84.30;;;;;;5011147;28;20065;-61
2023/04/14 02:19:53;;;;;;;7.43;2.20;;;15.40;84.30;;;;;;5011842;28;20049;-60
2023/04/14 02:22:19;;;;;;;6.50;2.08;;;15.20;82.80;;;;;;5010767;28;20034;-61
2023/04/14 02:24:48;;;;;;;8.77;2.40;;;15.20;79.40;;;;;;4997017;28;20104;-62
2023/04/14 02:27:17;;;;;;;7.20;2.25;;;15.00;80.20;;;;;;4996821;28;20100;-62
2023/04/14 02:29:47;;;;;;;6.30;2.28;;;15.10;83.90;;;;;;5009458;28;20136;-62
2023/04/14 02:32:14;;;;;;;6.97;2.13;;;;;;;;;;5006974;28;20054;-62
2023/04/14 02:34:52;;;;;;;6.15;2.30;;;;;;;;;;5013665;28;20478;-62
2023/04/14 02:37:23;;;;;;;5.85;1.92;;;15.00;80.30;;;;;;5012326;28;20042;-61
2023/04/14 02:39:50;;;;;;;5.45;2.00;;;;;;;;;;5008772;28;20042;-60
2023/04/14 02:42:17;;;;;;;6.60;2.53;;;15.30;81.00;;;;;;5002633;28;20860;-60
2023/04/14 02:44:50;;;;;;;6.57;2.17;;;15.10;79.70;;;;;;4996247;28;20111;-62
2023/04/14 02:47:27;;;;;;;7.53;2.40;;;;;;;;;;5004523;28;20110;-61
2023/04/14 02:49:53;;;;;;;8.40;2.55;;;15.00;83.90;;;;;;4992875;28;20112;-60
2023/04/14 02:52:19;;;;;;;7.38;2.45;;;14.90;83.90;;;;;;4982235;28;20050;-60
2023/04/14 02:54:45;;;;;;;5.97;2.25;;;14.90;82.80;;;;;;5010852;28;20496;-60
2023/04/14 02:57:10;;;;;;;5.25;2.15;;;15.00;83.80;;;;;;5012402;28;20041;-61
2023/04/14 02:59:36;;;;;;;7.13;2.60;;;15.00;83.90;;;;;;4983384;28;20743;-60
2023/04/14 03:02:04;;;;;;;10.65;2.55;;;;;;;;;;5012504;28;20042;-61
2023/04/14 03:04:31;;;;;;;5.85;2.00;;;14.80;79.80;;;;;;5002747;28;20049;-61
2023/04/14 03:06:57;;;;;;;6.28;2.20;;;14.90;82.80;;;;;;5001129;28;20046;-62
2023/04/14 03:09:23;;;;;;;7.60;2.45;;;14.90;83.90;;;;;;4992493;28;20104;-61
2023/04/14 03:11:49;;;;;;;6.32;2.55;;;15.10;83.80;;;;;;5010989;28;20128;-60
2023/04/14 03:14:15;;;;;;;5.50;2.20;;;;;;;;;;5011573;28;20050;-61
2023/04/14 03:16:41;;;;;;;4.47;1.90;;;14.90;83.90;;;;;;5010791;28;20050;-60
2023/04/14 03:19:11;;;;;;;6.90;2.75;;;15.00;83.80;;;;;;5008757;28;20030;-60
2023/04/14 03:21:37;;;;;;;6.80;2.60;;;15.30;84.00;;;;;;5002949;28;20523;-61
2023/04/14 03:24:03;;;;;;;8.02;2.00;;;;;;;;;;5010259;28;20128;-61
2023/04/14 03:26:29;;;;;;;6.00;2.35;;;;;;;;;;5009439;28;20045;-61
2023/04/14 03:28:56;;;;;;;8.05;2.25;;;15.00;80.50;;;;;;5012345;28;20057;-62
2023/04/14 03:31:23;;;;;;;8.68;2.80;;;15.10;80.60;;;;;;5011100;28;20053;-61
2023/04/14 03:33:54;;;;;;;6.85;2.40;;;;;;;;;;5009054;28;20054;-61
2023/04/14 03:36:20;;;;;;;5.57;2.03;;;;;;;;;;5008156;28;20050;-61
2023/04/14 03:38:48;;;;;;;6.00;2.17;;;15.10;83.40;;;;;;4997750;28;20071;-62
2023/04/14 03:41:13;;;;;;;7.50;2.65;;;15.10;83.70;;;;;;4996979;28;20534;-61
2023/04/14 03:43:40;;;;;;;6.15;2.10;;;;;;;;;;5011666;28;20049;-62
2023/04/14 03:46:05;;;;;;;5.18;1.80;;;15.40;83.90;;;;;;5006777;28;20133;-62
2023/04/14 03:48:33;;;;;;;4.80;1.90;;;;;;;;;;4997460;28;20129;-62
2023/04/14 03:51:01;;;;;;;5.30;1.90;;;;;;;;;;5011519;28;20095;-61
2023/04/14 03:53:26;;;;;;;7.60;2.65;;;15.20;83.80;;;;;;5010960;28;20053;-62
2023/04/14 03:55:52;;;;;;;5.32;1.85;;;14.70;83.40;;;;;;5009637;28;20514;-62
2023/04/14 03:58:18;;;;;;;7.10;2.05;;;15.10;83.60;;;;;;5013127;28;20078;-61
2023/04/14 04:00:44;;;;;;;5.78;2.00;;;15.10;83.70;;;;;;5011442;28;20045;-62
2023/04/14 04:03:10;;;;;;;5.03;2.10;;;15.00;83.60;;;;;;5000810;28;20050;-62
2023/04/14 04:05:38;;;;;;;8.23;1.98;;;15.00;80.40;;;;;;4992564;28;20389;-62
2023/04/14 04:08:03;;;;;;;4.80;1.80;;;15.20;81.40;;;;;;4979974;28;20046;-61
2023/04/14 04:10:30;;;;;;;7.53;2.33;;;;;;;;;;5006941;28;20095;-61
2023/04/14 04:12:56;;;;;;;6.18;1.75;;;;;;;;;;5008039;28;20045;-62
2023/04/14 04:15:22;;;;;;;6.03;2.13;;;;;;;;;;5012679;28;20052;-63
2023/04/14 04:17:49;;;;;;;5.18;2.10;;;;;;;;;;5015648;28;20034;-63
2023/04/14 04:20:15;;;;;;;7.40;1.88;;;15.20;83.60;;;;;;4996142;28;20456;-62
2023/04/14 04:22:41;;;;;;;5.18;2.25;;;;;;;;;;5011767;28;20050;-62
2023/04/14 04:25:08;;;;;;;4.50;1.80;;;15.20;80.50;;;;;;5011917;28;20065;-62
2023/04/14 04:27:34;;;;;;;6.65;1.92;;;;;;;;;;4987743;28;20443;-61
2023/04/14 04:30:00;;;;;;;5.05;1.80;;;;;;;;;;5002231;28;20500;-61
2023/04/14 04:32:26;;;;;;;4.28;1.98;;;;;;;;;;4997122;28;20170;-61
2023/04/14 04:34:52;;;;;;;5.75;2.10;;;;;;;;;;5012166;28;20046;-60
2023/04/14 04:37:19;;;;;;;7.95;2.35;;;;;;;;;;5013083;28;20045;-63
2023/04/14 04:39:47;;;;;;;7.95;2.10;;;;;;;;;;5009391;28;20034;-62
2023/04/14 04:42:13;;;;;;;6.60;2.03;;;15.10;81.50;;;;;;5023450;28;20054;-62
2023/04/14 04:44:39;;;;;;;5.07;1.85;;;15.20;81.50;;;;;;5014660;28;20522;-63
2023/04/14 04:47:05;;;;;;;5.70;2.10;;;;;;;;;;5001762;28;20053;-62
2023/04/14 04:49:30;;;;;;;5.28;2.15;;;15.10;80.80;;;;;;4992522;28;20057;-63
2023/04/14 04:51:58;;;;;;;5.10;1.83;;;;;;;;;;5013760;28;20050;-62
2023/04/14 04:54:25;;;;;;;5.93;1.98;;;15.10;83.40;;;;;;5008414;28;20056;-62
2023/04/14 04:56:52;;;;;;;6.07;1.90;;;;;;;;;;5014695;28;20415;-62
2023/04/14 04:59:18;;;;;;;4.63;1.95;;;15.20;80.80;;;;;;5014758;28;20054;-63
2023/04/14 05:01:44;;;;;;;6.78;2.33;;;14.90;83.10;;;;;;5014252;28;20396;-62
2023/04/14 05:04:10;;;;;;;6.57;2.00;;;14.90;82.90;;;;;;5011561;28;20038;-60
2023/04/14 05:06:36;;;;;;;5.53;1.90;;;14.90;83.10;;;;;;5015988;28;20392;-63
2023/04/14 05:09:03;;;;;;;4.50;1.83;;;15.50;83.30;;;;;;5011991;28;20038;-61
2023/04/14 05:11:28;;;;;;;7.18;2.20;;;15.30;83.20;;;;;;4996945;28;20049;-62
2023/04/14 05:13:55;;;;;;;4.75;2.08;;;15.40;83.10;;;;;;5009543;28;20060;-60
2023/04/14 05:16:20;;;;;;;3.88;1.92;;;15.20;82.90;;;;;;5011202;28;20054;-61
2023/04/14 05:18:47;;;;;;;6.90;2.00;;;;;;;;;;5007711;28;20395;-61
2023/04/14 05:21:13;;;;;;;4.60;1.50;;;;;;;;;;5012028;28;20131;-61
2023/04/14 05:23:40;;;;;;;6.30;2.20;;;;;;;;;;5006033;28;20128;-60
2023/04/14 05:26:06;;;;;;;5.63;2.20;;;15.60;82.20;;;;;;5012475;28;20084;-60
2023/04/14 05:28:32;;;;;;;4.57;1.77;;;15.50;82.60;;;;;;5003147;28;20492;-61
2023/04/14 05:30:58;;;;;;;6.00;2.10;;;;;;;;;;5012821;28;20042;-60
2023/04/14 05:33:24;;;;;;;5.13;2.00;;;15.80;82.20;;;;;;5012611;28;20040;-60
2023/04/14 05:35:51;;;;;;;4.43;2.00;;;;;;;;;;5000457;28;20471;-61
2023/04/14 05:38:17;;;;;;;6.95;2.17;;;15.90;81.10;;;;;;5012119;28;20483;-61
2023/04/14 05:40:44;;;;;;;4.50;1.90;;;16.00;82.30;;;;;;4995625;28;20062;-62
2023/04/14 05:43:10;;;;;;;5.90;2.13;;;;;;;;;;4994532;28;20034;-61
2023/04/14 05:45:36;;;;;;;6.05;1.88;;;16.20;82.20;;;;;;5009991;28;20510;-61
2023/04/14 05:48:02;;;;;;;3.63;1.67;;;16.50;82.30;;;;;;5005691;28;20033;-61
2023/04/14 05:50:28;;;;;;;6.10;2.08;;;;;;;;;;5004752;28;20078;-60
2023/04/14 05:52:54;;;;;;;5.13;1.85;;;16.10;81.70;;;;;;4995616;28;20042;-61
2023/04/14 05:55:20;;;;;;;5.43;1.90;;;16.70;79.70;;;;;;5008259;28;20129;-61
2023/04/14 05:57:46;;;;;;;6.15;1.92;;;;;;;;;;4998947;28;20045;-60
2023/04/14 06:00:13;;;;;;;6.63;2.00;;;;;;;;;;5009828;28;20483;-60
2023/04/14 06:02:39;;;;;;;3.95;1.73;;;;;;;;;;5012303;28;20054;-61
2023/04/14 06:05:06;;;;;;;3.13;1.55;;;16.80;78.80;;;;;;5013822;28;20050;-61
2023/04/14 06:07:32;;;;;;;6.60;1.75;;;16.90;81.20;;;;;;5011225;28;20046;-60
2023/04/14 06:09:59;;;;;;;5.18;2.20;;;;;;;;;;4997075;28;20112;-61
2023/04/14 06:12:25;;;;;;;7.80;2.17;;;17.10;78.90;;;;;;5012235;28;20052;-62
2023/04/14 06:14:51;;;;;;;4.80;1.65;;;;;;;;;;5010326;28;20058;-62
2023/04/14 06:17:17;;;;;;;4.03;1.63;;;;;;;;;;5004919;28;20052;-60
2023/04/14 06:19:45;;;;;;;5.15;2.28;;;;;;;;;;5013131;28;20421;-61
2023/04/14 06:22:15;;;;;;;6.82;1.98;;;17.30;80.70;;;;;;5010039;28;20065;-61
2023/04/14 06:24:41;;;;;;;5.97;1.90;;;17.40;80.30;;;;;;5002793;28;20054;-60
2023/04/14 06:27:08;;;;;;;4.68;1.70;;;;;;;;;;4994346;28;20042;-60
2023/04/14 06:29:34;;;;;;;5.85;1.92;;;17.30;77.70;;;;;;5003985;28;20053;-61
2023/04/14 06:32:00;;;;;;;5.60;1.73;;;;;;;;;;5010112;28;20034;-60
2023/04/14 06:34:27;;;;;;;3.83;1.45;;;;;;;;;;4999848;28;20054;-61
2023/04/14 06:36:52;;;;;;;4.75;1.58;;;17.80;80.30;;;;;;5013273;28;20107;-60
2023/04/14 06:39:20;;;;;;;4.38;1.85;;;;;;;;;;5013689;28;20053;-62
2023/04/14 06:41:49;;;;;;;5.07;1.80;;;;;;;;;;5004562;28;20491;-63
2023/04/14 06:44:15;;;;;;;4.07;1.80;;;;;;;;;;5007557;28;20053;-62
2023/04/14 06:46:41;;;;;;;6.40;2.00;;;18.10;80.10;;;;;;5013264;28;20203;-60
2023/04/14 06:49:07;;;;;;;4.13;1.70;;;18.20;79.40;;;;;;5009723;28;20547;-60
2023/04/14 06:51:33;;;;;;;7.15;1.90;;;18.40;80.00;;;;;;5014725;28;20038;-60
2023/04/14 06:54:00;;;;;;;5.20;1.92;;;;;;;;;;5012529;28;20091;-61
2023/04/14 06:56:25;;;;;;;6.45;1.70;;;18.70;79.90;;;;;;5012039;28;20042;-59
2023/04/14 06:58:51;;;;;;;5.10;1.90;;;18.20;78.10;;;;;;5005382;28;20054;-61
2023/04/14 07:01:17;;;;;;;5.80;1.52;;;;;;;;;;5016939;28;20129;-60
2023/04/14 07:03:43;;;;;;;5.07;1.95;;;;;;;;;;5006824;28;20057;-63
2023/04/14 07:06:14;;;;;;;4.20;1.50;;;18.70;79.40;;;;;;5013509;28;20045;-64
2023/04/14 07:08:40;;;;;;;5.53;2.00;;;;;;;;;;5010949;28;20093;-63
2023/04/14 07:11:10;;;;;;;6.78;1.80;;;18.80;79.40;;;;;;5008925;28;20046;-63
2023/04/14 07:13:36;;;;;;;5.00;2.10;;;;;;;;;;5007392;28;20042;-63
2023/04/14 07:16:02;;;;;;;3.50;1.50;;;;;;;;;;5008643;28;20041;-64
2023/04/14 07:18:29;;;;;;;3.92;1.50;;;19.10;78.90;;;;;;5010119;28;23105;-64
2023/04/14 07:20:55;;;;;;;5.60;1.80;;;;;;;;;;5005682;28;20361;-63
2023/04/14 07:23:21;;;;;;;6.47;1.75;;;;;;;;;;5006618;28;20046;-63
2023/04/14 07:25:54;;;;;;;5.85;1.70;;;19.30;79.20;;;;;;5010378;28;20052;-63
2023/04/14 07:28:20;;;;;;;5.43;2.38;;;19.20;79.10;;;;;;4990476;28;20116;-64
2023/04/14 07:30:48;;;;;;;4.32;1.73;;;19.30;77.70;;;;;;5011328;28;20045;-63
2023/04/14 07:33:18;;;;;;;5.00;1.92;;;19.30;76.90;;;;;;5005514;28;20051;-62
2023/04/14 07:35:51;;;;;;;5.00;1.60;;;19.30;75.20;;;;;;5001860;28;20148;-64
2023/04/14 07:38:16;;;;;;;;;;;19.60;76.10;;;;;;4983491;28;20077;-61
2023/04/14 07:40:42;;;;;;;3.70;1.67;;;19.30;78.50;;;;;;5010339;28;19969;-61
2023/04/14 07:43:08;;;;;;;4.70;1.50;;;;;;;;;;5003737;28;20052;-61
2023/04/14 07:45:34;;;;;;;4.70;1.70;;;19.30;78.90;;;;;;5012526;28;20120;-60
2023/04/14 07:48:00;;;;;;;5.28;1.63;;;19.40;79.00;;;;;;5011913;28;20038;-62
2023/04/14 07:50:26;;;;;;;4.30;1.75;;;19.40;79.20;;;;;;5011732;28;20052;-62
2023/04/14 07:52:52;;;;;;;6.07;2.10;;;19.30;79.20;;;;;;5012305;28;20038;-61
2023/04/14 07:55:17;;;;;;;5.35;1.98;;;19.30;77.30;;;;;;5011676;28;20115;-61
2023/04/14 07:57:43;;;;;;;4.70;1.60;;;19.40;78.70;;;;;;5012104;28;20041;-62
2023/04/14 08:00:10;;;;;;;6.40;1.90;;;19.30;79.00;;;;;;4993153;28;20089;-61
2023/04/14 08:02:36;;;;;;;5.43;1.88;;;19.00;76.90;;;;;;5011097;28;20045;-62
2023/04/14 08:05:02;;;;;;;5.18;1.85;;;19.30;79.30;;;;;;5012171;28;20494;-63
2023/04/14 08:07:28;;;;;;;6.10;1.90;;;19.00;79.10;;;;;;5011008;28;20052;-63
2023/04/14 08:09:54;;;;;;;6.18;1.92;;;19.30;76.10;;;;;;5007243;28;20484;-60
2023/04/14 08:12:20;;;;;;;5.85;1.70;;;;;;;;;;4993343;28;20038;-60
2023/04/14 08:14:49;;;;;;;6.03;2.05;;;19.60;79.10;;;;;;4993021;28;20104;-61
2023/04/14 08:17:15;;;;;;;8.02;2.15;;;;;;;;;;4994824;28;20053;-60
2023/04/14 08:19:41;;;;;;;6.45;1.90;;;;;;;;;;5003083;28;20050;-61
2023/04/14 08:22:07;;;;;;;6.93;1.73;;;19.70;76.30;;;;;;5021465;28;20129;-61
2023/04/14 08:24:33;;;;;;;4.32;1.67;;;19.70;77.00;;;;;;5011596;28;20185;-60
2023/04/14 08:27:00;;;;;;;7.40;1.90;;;19.40;78.10;;;;;;5010233;28;20046;-60
2023/04/14 08:29:26;;;;;;;5.93;1.90;;;19.30;78.40;;;;;;5009666;28;20133;-60
2023/04/14 08:31:52;;;;;;;4.55;1.85;;;;;;;;;;5011039;28;20056;-61
2023/04/14 08:34:18;;;;;;;6.18;1.90;;;19.70;78.80;;;;;;5012442;28;20081;-60
2023/04/14 08:36:46;;;;;;;4.63;1.60;;;19.50;78.60;;;;;;5009379;28;20455;-60
2023/04/14 08:39:12;;;;;;;5.70;1.70;;;;;;;;;;5011269;28;20038;-61
2023/04/14 08:41:38;;;;;;;4.63;2.00;;;19.90;78.70;;;;;;5012758;28;20088;-60
2023/04/14 08:44:04;;;;;;;4.93;1.60;;;;;;;;;;4993564;28;20448;-63
2023/04/14 08:46:31;;;;;;;4.85;1.67;;;;;;;;;;4991594;28;20037;-64
2023/04/14 08:49:06;;;;;;;5.18;1.70;;;20.20;75.60;;;;;;5009502;28;20050;-65
2023/04/14 08:51:37;;;;;;;6.07;1.92;;;19.90;78.30;;;;;;4992266;28;20039;-59
2023/04/14 08:54:06;;;;;;;5.32;1.60;;;20.10;78.50;;;;;;4994973;28;20085;-62
2023/04/14 08:56:41;;;;;;;4.20;1.50;;;19.90;73.80;;;;;;4991905;28;20089;-61
2023/04/14 08:59:07;;;;;;;4.18;1.67;;;;;;;;;;5014678;28;20107;-61
2023/04/14 09:01:34;;;;;;;3.58;1.40;;;20.30;74.60;;;;;;5001231;28;20041;-61
2023/04/14 09:04:02;;;;;;;7.85;2.42;;;20.10;78.30;;;;;;5014337;28;20049;-60
2023/04/14 09:06:31;;;;;;;7.43;2.33;;;19.80;78.20;;;;;;5001584;28;20129;-59
2023/04/14 09:08:59;;;;;;;11.05;1.85;;;;;;;;;;5011779;28;20077;-66
2023/04/14 09:11:25;;;;;;;9.20;2.38;;;20.30;78.50;;;;;;5028573;28;20046;-61
2023/04/14 09:13:51;;;;;;;14.20;2.47;;;20.30;78.40;;;;;;5013733;28;20054;-61
2023/04/14 09:16:16;;;;;;;7.50;2.05;;;20.10;76.60;;;;;;5014338;28;20172;-60
2023/04/14 09:18:42;;;;;;;10.25;2.25;;;20.20;78.20;;;;;;5008823;28;20048;-60
2023/04/14 09:21:09;;;;;;;9.52;2.25;;;20.30;75.10;;;;;;5014859;28;20395;-60
2023/04/14 09:23:36;;;;;;;9.10;1.98;;;20.20;75.80;;;;;;5015723;28;20046;-60
2023/04/14 09:26:02;;;;;;;10.48;2.22;;;;;;;;;;5014433;28;20522;-61
2023/04/14 09:28:28;;;;;;;30.00;4.13;;;20.20;78.00;;;;;;5015112;28;20061;-61
2023/04/14 09:30:54;;;;;;;16.10;3.40;;;;;;;;;;5014940;28;20611;-61
2023/04/14 09:33:21;;;;;;;18.25;2.95;;;20.10;76.80;;;;;;5015352;28;20042;-61
2023/04/14 09:35:48;;;;;;;17.13;3.05;;;19.90;76.40;;;;;;4995982;28;20050;-61
2023/04/14 09:38:15;;;;;;;15.20;3.05;;;19.80;76.30;;;;;;4998238;28;20041;-62
2023/04/14 09:40:42;;;;;;;13.15;2.78;;;19.70;76.40;;;;;;5015020;28;20472;-61
2023/04/14 09:43:21;;;;;;;9.30;2.47;;;19.50;73.20;;;;;;5013327;28;20060;-61
2023/04/14 09:45:47;;;;;;;9.68;2.97;;;19.10;76.30;;;;;;5013698;28;20115;-61
2023/04/14 09:48:13;;;;;;;11.13;2.70;;;19.30;76.30;;;;;;5014825;28;20434;-60
2023/04/14 09:50:58;;;;;;;7.05;2.58;;;19.60;74.30;;;;;;5014760;28;20088;-60
2023/04/14 09:53:35;;;;;;;8.52;2.47;;;19.20;71.70;;;;;;5014823;28;20046;-60
2023/04/14 09:56:05;;;;;;;9.75;2.55;;;19.50;76.50;;;;;;5014875;28;20057;-62
2023/04/14 09:58:43;;;;;;;10.43;2.47;;;19.30;73.20;;;;;;5014875;28;20045;-60
2023/04/14 10:01:13;;;;;;;7.38;2.40;;;19.40;71.20;;;;;;5013724;28;20041;-59
2023/04/14 10:03:41;;;;;;;12.63;3.53;;;19.30;75.60;;;;;;5013316;28;20053;-60
2023/04/14 10:06:16;;;;;;;7.82;3.10;;;19.20;75.30;;;;;;5014175;28;20452;-61
2023/04/14 10:08:52;;;;;;;7.32;2.50;;;19.00;72.30;;;;;;5011632;28;20061;-60
2023/04/14 10:11:23;;;;;;;8.05;2.75;;;19.10;72.20;;;;;;5011369;28;20112;-60
2023/04/14 10:13:52;;;;;;;7.82;2.70;;;19.00;74.80;;;;;;5012507;28;20059;-60
2023/04/14 10:16:18;;;;;;;7.82;2.92;;;18.50;75.00;;;;;;5014625;28;20038;-60
2023/04/14 10:18:44;;;;;;;10.68;3.47;;;;;;;;;;5014325;28;20542;-60
2023/04/14 10:21:10;;;;;;;9.13;3.10;;;18.90;74.40;;;;;;5014086;28;20476;-60
2023/04/14 10:23:38;;;;;;;9.52;3.53;;;18.80;75.40;;;;;;5009601;28;20129;-60
2023/04/14 10:26:06;;;;;;;11.27;3.40;;;18.60;72.60;;;;;;5008071;28;20104;-60
2023/04/14 10:28:35;;;;;;;8.63;3.28;;;19.00;72.60;;;;;;5002058;28;20389;-60
2023/04/14 10:31:01;;;;;;;10.38;3.45;;;18.80;75.90;;;;;;5012313;28;20062;-61
2023/04/14 10:33:28;;;;;;;9.13;3.30;;;18.30;75.70;;;;;;5011059;28;20462;-62
2023/04/14 10:35:59;;;;;;;9.65;3.35;;;18.70;73.00;;;;;;5010132;28;20059;-60
2023/04/14 10:38:45;;;;;;;9.73;3.25;;;18.70;75.90;;;;;;5010156;28;20046;-60
2023/04/14 10:41:11;;;;;;;10.50;3.28;;;;;;;;;;5012588;28;20050;-59
2023/04/14 10:43:38;;;;;;;6.85;3.10;;;18.70;72.00;;;;;;5003652;28;20459;-60
2023/04/14 10:46:05;;;;;;;9.32;3.53;;;18.80;74.00;;;;;;5001296;28;20220;-59
2023/04/14 10:48:33;;;;;;;9.50;2.88;;;18.90;76.20;;;;;;4999591;28;20041;-60
2023/04/14 10:51:00;;;;;;;7.97;3.22;;;18.70;75.00;;;;;;5013272;28;20112;-59
2023/04/14 10:53:26;;;;;;;8.30;3.83;;;;;;;;;;5012414;28;20057;-60
2023/04/14 10:55:53;;;;;;;8.82;3.28;;;19.10;76.30;;;;;;5012865;28;20084;-61
2023/04/14 10:58:20;;;;;;;8.95;3.38;;;19.10;74.70;;;;;;5012832;28;20049;-61
2023/04/14 11:00:46;;;;;;;9.50;3.33;;;18.90;73.70;;;;;;5001985;28;20050;-60
2023/04/14 11:03:16;;;;;;;8.70;3.72;;;19.20;73.00;;;;;;4992992;28;20038;-60
2023/04/14 11:05:49;;;;;;;12.90;4.13;;;;;;;;;;4991966;28;20058;-60
2023/04/14 11:08:23;;;;;;;7.65;3.22;;;19.00;75.70;;;;;;5007617;28;20373;-59
2023/04/14 11:10:50;;;;;;;8.75;3.60;;;19.40;75.80;;;;;;5012737;28;20054;-60
2023/04/14 11:13:16;;;;;;;9.50;3.85;;;19.20;75.60;;;;;;5013607;28;20050;-60
2023/04/14 11:15:45;;;;;;;15.27;4.10;;;19.10;74.90;;;;;;5011459;28;20053;-62
2023/04/14 11:18:16;;;;;;;11.77;3.47;;;19.50;71.10;;;;;;5005109;28;20052;-60
2023/04/14 11:20:42;;;;;;;9.10;3.90;;;19.60;74.60;;;;;;5003915;28;20061;-60
2023/04/14 11:23:09;;;;;;;7.72;3.47;;;;;;;;;;5005406;28;20049;-60
2023/04/14 11:25:38;;;;;;;11.65;3.72;;;19.80;74.60;;;;;;5013433;28;20042;-61
2023/04/14 11:28:04;;;;;;;9.07;3.40;;;19.60;75.20;;;;;;5013066;28;20093;-60
2023/04/14 11:30:31;;;;;;;8.98;2.90;;;19.60;75.00;;;;;;5011296;28;20148;-61
2023/04/14 11:32:58;;;;;;;9.20;3.25;;;19.70;73.20;;;;;;5013103;28;20050;-60
2023/04/14 11:35:27;;;;;;;9.80;2.85;;;19.70;74.70;;;;;;4978241;28;20120;-60
2023/04/14 11:37:57;;;;;;;8.10;3.30;;;19.70;74.80;;;;;;4992128;28;20403;-60
2023/04/14 11:40:24;;;;;;;8.80;3.08;;;19.80;75.00;;;;;;4997680;28;20046;-60
2023/04/14 11:42:57;;;;;;;9.45;3.20;;;19.70;70.20;;;;;;5010748;28;20071;-61
2023/04/14 11:45:29;;;;;;;7.72;3.30;;;19.60;75.00;;;;;;5011322;28;20056;-59
2023/04/14 11:48:02;;;;;;;7.63;3.17;;;19.80;70.50;;;;;;5011582;28;20044;-60
2023/04/14 11:50:29;;;;;;;;;;;19.70;72.00;;;;;;4989914;28;20500;-66
2023/04/14 11:52:58;;;;;;;7.43;2.83;;;;;;;;;;5010967;28;20375;-61
2023/04/14 11:55:27;;;;;;;9.63;3.13;;;19.60;72.10;;;;;;5011279;28;20053;-62
2023/04/14 11:57:54;;;;;;;12.27;3.10;;;19.80;71.20;;;;;;5008881;28;20100;-60
2023/04/14 12:00:20;;;;;;;18.02;4.80;;;;;;;;;;5006219;28;20041;-60
2023/04/14 12:02:46;;;;;;;19.88;6.70;;;19.40;74.80;;;;;;5008594;28;20042;-60
2023/04/14 12:05:15;;;;;;;17.35;6.20;;;19.60;75.20;;;;;;5010537;28;20404;-60
2023/04/14 12:07:43;;;;;;;13.77;5.72;;;;;;;;;;5007466;28;20402;-60
2023/04/14 12:10:09;;;;;;;18.75;5.38;;;19.30;71.00;;;;;;4993061;28;20155;-61
2023/04/14 12:12:36;;;;;;;14.15;5.85;;;;;;;;;;5005393;28;20045;-61
2023/04/14 12:15:04;;;;;;;13.63;5.45;;;19.60;75.40;;;;;;5011478;28;20096;-61
2023/04/14 12:17:30;;;;;;;13.80;5.00;;;19.70;75.40;;;;;;5009337;28;20411;-61
2023/04/14 12:19:56;;;;;;;10.23;4.47;;;;;;;;;;5011448;28;20058;-60
2023/04/14 12:22:28;;;;;;;14.50;4.40;;;19.30;74.20;;;;;;5002054;28;20440;-62
2023/04/14 12:24:55;;;;;;;11.85;4.30;;;19.30;75.20;;;;;;5006329;28;20124;-60
2023/04/14 12:27:24;;;;;;;13.68;4.25;;;19.50;75.50;;;;;;5006278;28;20081;-61
2023/04/14 12:29:50;;;;;;;13.65;4.82;;;19.60;75.00;;;;;;5010441;28;20097;-62
2023/04/14 12:32:17;;;;;;;14.13;4.63;;;;;;;;;;5009412;28;20049;-60
2023/04/14 12:34:53;;;;;;;14.55;4.80;;;19.50;70.20;;;;;;5013059;28;20048;-60
2023/04/14 12:37:23;;;;;;;11.85;3.70;;;19.40;75.10;;;;;;5015072;28;20046;-62
2023/04/14 12:39:50;;;;;;;11.15;3.70;;;19.50;75.20;;;;;;5014081;28;20459;-61
2023/04/14 12:42:16;;;;;;;9.95;4.18;;;19.30;74.80;;;;;;5010941;28;20080;-59
2023/04/14 12:44:42;;;;;;;11.60;4.28;;;;;;;;;;5012994;28;20565;-60
2023/04/14 12:47:08;;;;;;;14.32;4.55;;;19.20;73.30;;;;;;5015118;28;20041;-60
2023/04/14 12:49:37;;;;;;;10.52;4.57;;;19.40;69.40;;;;;;5013521;28;20507;-60
2023/04/14 12:52:06;;;;;;;11.18;4.60;;;19.00;69.20;;;;;;4995265;28;20085;-60
2023/04/14 12:54:46;;;;;;;10.32;4.40;;;19.10;69.10;;;;;;5009509;28;20120;-59
2023/04/14 12:57:12;;;;;;;11.07;4.20;;;;;;;;;;5011180;28;20053;-60
2023/04/14 12:59:38;;;;;;;14.68;4.35;;;;;;;;;;5010031;28;20543;-59
2023/04/14 13:02:06;;;;;;;16.20;4.13;;;18.80;71.10;;;;;;5013457;28;20034;-59
2023/04/14 13:04:32;;;;;;;11.07;4.15;;;18.90;74.40;;;;;;5013754;28;20112;-59
2023/04/14 13:06:58;;;;;;;14.73;4.05;;;;;;;;;;5011039;28;20045;-59
2023/04/14 13:09:24;;;;;;;14.60;4.60;;;18.90;74.10;;;;;;5015392;28;20046;-59
2023/04/14 13:11:50;;;;;;;13.20;4.03;;;;;;;;;;5011392;28;20111;-66
2023/04/14 13:14:16;;;;;;;15.65;4.18;;;19.10;74.40;;;;;;4995980;28;20129;-60
2023/04/14 13:16:42;;;;;;;15.38;4.70;;;19.20;74.20;;;;;;5004397;28;20129;-60
2023/04/14 13:19:08;;;;;;;15.63;4.38;;;;;;;;;;5013207;28;20464;-60
2023/04/14 13:21:34;;;;;;;13.30;3.70;;;;;;;;;;5013230;28;20052;-59
2023/04/14 13:24:00;;;;;;;11.55;3.92;;;19.40;74.00;;;;;;5013337;28;20046;-60